Terminal Aerodrome Forecast
Issued by NWS Jackson, KY

Home | Current Version | Previous Version | Text Only | Print | Product List | Glossary On
Versions: 1 2 3 4 5 6 7 8 9 10 11 12 13 14 15 16 17 18 19 20 21 22 23
830
FTUS43 KJKL 130520
TAFLOZ
TAF
KLOZ 130520Z 1306/1406 31010KT P6SM -SN BKN035 OVC050
      TEMPO 1306/1307 6SM -SN OVC035
     FM130700 31008KT P6SM BKN035
     FM131400 32007KT P6SM SCT040=

USA.gov is the U.S. government's official web portal to all federal, state and local government web resources and services.